createdAt,value
2022-09-26T00:01:45.367Z,98917.13
2022-09-26T00:04:33.060Z,98912.91
2022-09-26T00:07:20.174Z,98917.34
2022-09-26T00:10:08.899Z,98915.75
2022-09-26T00:12:56.830Z,98915.06
2022-09-26T00:15:48.351Z,98912.63
2022-09-26T00:18:36.219Z,98907.63
2022-09-26T00:21:24.647Z,98894.91
2022-09-26T00:24:12.081Z,98906.00
2022-09-26T00:26:59.438Z,98901.78
2022-09-26T00:29:46.911Z,98901.94
2022-09-26T00:32:35.245Z,98907.19
2022-09-26T00:35:22.580Z,98898.69
2022-09-26T00:38:09.729Z,98890.31
2022-09-26T00:40:56.808Z,98897.22
2022-09-26T00:43:46.558Z,98898.13
2022-09-26T00:46:37.636Z,98894.91
2022-09-26T00:49:30.290Z,98899.34
2022-09-26T00:52:24.375Z,98890.00
2022-09-26T00:55:15.167Z,98893.56
2022-09-26T00:58:08.276Z,98887.59
2022-09-26T01:00:56.965Z,98894.47
2022-09-26T01:03:45.813Z,98882.72
2022-09-26T01:06:34.443Z,98880.94
2022-09-26T01:09:22.341Z,98881.91
2022-09-26T01:12:10.272Z,98875.16
2022-09-26T01:14:59.510Z,98867.59
2022-09-26T01:17:47.607Z,98869.19
2022-09-26T01:20:49.133Z,98865.69
2022-09-26T01:24:16.029Z,98857.31
2022-09-26T01:27:42.148Z,98851.63
2022-09-26T01:30:37.446Z,98854.31
2022-09-26T01:33:42.492Z,98852.69
2022-09-26T01:36:58.717Z,98845.25
2022-09-26T01:39:55.973Z,98845.41
2022-09-26T01:42:58.841Z,98860.81
2022-09-26T01:45:55.033Z,98857.41
2022-09-26T01:48:48.564Z,98854.97
2022-09-26T01:51:46.326Z,98853.34
2022-09-26T01:54:38.964Z,98847.53
2022-09-26T01:57:38.773Z,98844.97
2022-09-26T02:00:26.553Z,98842.53
2022-09-26T02:03:23.034Z,98845.25
2022-09-26T02:06:15.865Z,98841.97
2022-09-26T02:09:10.315Z,98841.28
2022-09-26T02:12:05.402Z,98841.38
2022-09-26T02:14:55.719Z,98839.78
2022-09-26T02:17:47.382Z,98845.06
2022-09-26T02:20:39.132Z,98841.66
2022-09-26T02:23:26.421Z,98849.38
2022-09-26T02:26:14.111Z,98836.53
2022-09-26T02:29:01.823Z,98834.78
2022-09-26T02:31:55.631Z,98832.47
2022-09-26T02:34:47.171Z,98821.78
2022-09-26T02:37:36.539Z,98818.53
2022-09-26T02:40:34.143Z,98806.66
2022-09-26T02:43:40.818Z,98811.78
2022-09-26T02:47:00.949Z,98800.56
2022-09-26T02:50:19.928Z,98797.22
2022-09-26T02:53:26.112Z,98791.25
2022-09-26T02:56:30.100Z,98791.25
2022-09-26T02:59:23.375Z,98782.75
2022-09-26T03:02:16.775Z,98779.34
2022-09-26T03:05:17.801Z,98766.66
2022-09-26T03:08:13.009Z,98759.09
2022-09-26T03:11:06.508Z,98762.59
2022-09-26T03:13:55.949Z,98753.44
2022-09-26T03:16:46.026Z,98754.22
2022-09-26T03:19:40.880Z,98749.09
2022-09-26T03:22:28.442Z,98743.97
2022-09-26T03:25:22.165Z,98747.47
2022-09-26T03:28:21.738Z,98756.94
2022-09-26T03:31:09.399Z,98750.16
2022-09-26T03:34:16.974Z,98751.25
2022-09-26T03:37:05.109Z,98748.13
2022-09-26T03:39:53.991Z,98742.88
2022-09-26T03:42:57.261Z,98733.69
2022-09-26T03:45:44.763Z,98728.69
2022-09-26T03:48:39.846Z,98722.88
2022-09-26T03:51:27.967Z,98717.75
2022-09-26T03:54:15.527Z,98722.88
2022-09-26T03:57:02.930Z,98717.75
2022-09-26T03:59:51.678Z,98709.25
2022-09-26T04:02:39.599Z,98704.91
2022-09-26T04:05:40.261Z,98702.34
2022-09-26T04:08:27.574Z,98700.72
2022-09-26T04:11:19.376Z,98699.00
2022-09-26T04:14:08.148Z,98694.00
2022-09-26T04:16:58.459Z,98684.66
2022-09-26T04:19:56.597Z,98686.41
2022-09-26T04:22:43.970Z,98694.22
2022-09-26T04:25:31.693Z,98688.31
2022-09-26T04:28:19.065Z,98687.50
2022-09-26T04:31:08.276Z,98678.31
2022-09-26T04:33:57.327Z,98672.22
2022-09-26T04:36:44.651Z,98676.69
2022-09-26T04:39:33.171Z,98672.50
2022-09-26T04:42:21.256Z,98668.31
2022-09-26T04:45:10.464Z,98666.94
2022-09-26T04:47:57.753Z,98663.56
2022-09-26T04:50:46.373Z,98657.75
2022-09-26T04:53:33.445Z,98664.50
2022-09-26T04:56:29.863Z,98656.81
2022-09-26T04:59:17.052Z,98662.88
2022-09-26T05:02:14.843Z,98661.28
2022-09-26T05:05:03.379Z,98653.59
2022-09-26T05:07:52.502Z,98644.28
2022-09-26T05:10:39.988Z,98649.53
2022-09-26T05:13:28.925Z,98648.72
2022-09-26T05:16:17.270Z,98647.09
2022-09-26T05:19:05.658Z,98638.72
2022-09-26T05:21:56.707Z,98642.50
2022-09-26T05:25:02.951Z,98636.81
2022-09-26T05:27:50.188Z,98633.44
2022-09-26T05:30:37.583Z,98627.53
2022-09-26T05:33:24.867Z,98623.19
2022-09-26T05:36:13.868Z,98631.56
2022-09-26T05:39:01.325Z,98634.25
2022-09-26T05:41:49.395Z,98634.94
2022-09-26T05:44:36.726Z,98627.09
2022-09-26T05:47:26.489Z,98630.47
2022-09-26T05:50:13.632Z,98626.19
2022-09-26T05:53:02.197Z,98628.88
2022-09-26T05:55:51.154Z,98621.31
2022-09-26T05:58:48.175Z,98619.00
2022-09-26T06:01:38.620Z,98618.84
2022-09-26T06:04:37.839Z,98616.44
2022-09-26T06:07:51.882Z,98613.88
2022-09-26T06:11:01.484Z,98611.31
2022-09-26T06:13:50.956Z,98608.50
2022-09-26T06:16:38.112Z,98608.34
2022-09-26T06:19:27.011Z,98602.25
2022-09-26T06:22:14.035Z,98601.34
2022-09-26T06:25:01.211Z,98586.78
2022-09-26T06:27:48.916Z,98590.78
2022-09-26T06:30:37.367Z,98588.13
2022-09-26T06:33:53.450Z,98585.56
2022-09-26T06:36:54.701Z,98583.78
2022-09-26T06:39:41.871Z,98579.47
2022-09-26T06:42:29.049Z,98578.66
2022-09-26T06:45:32.247Z,98568.28
2022-09-26T06:48:53.077Z,98570.84
2022-09-26T06:51:44.549Z,98564.63
2022-09-26T06:54:31.932Z,98570.56
2022-09-26T06:57:19.110Z,98563.56
2022-09-26T07:00:07.637Z,98558.16
2022-09-26T07:03:26.683Z,98554.66
2022-09-26T07:06:27.174Z,98553.56
2022-09-26T07:09:16.244Z,98553.97
2022-09-26T07:12:22.359Z,98549.38
2022-09-26T07:15:13.762Z,98555.03
2022-09-26T07:18:03.282Z,98553.97
2022-09-26T07:21:13.318Z,98554.47
2022-09-26T07:24:30.951Z,98558.44
2022-09-26T07:27:19.029Z,98548.97
2022-09-26T07:30:09.857Z,98556.22
2022-09-26T07:33:07.942Z,98543.81
2022-09-26T07:36:14.097Z,98545.69
2022-09-26T07:39:02.687Z,98538.13
2022-09-26T07:41:51.172Z,98540.13
2022-09-26T07:45:20.387Z,98537.03
2022-09-26T07:48:03.039Z,98533.78
2022-09-26T07:51:17.781Z,98534.03
2022-09-26T07:54:08.729Z,98537.78
2022-09-26T07:57:29.870Z,98531.28
2022-09-26T08:00:31.588Z,98531.66
2022-09-26T08:03:35.329Z,98521.75
2022-09-26T08:06:28.619Z,98522.00
2022-09-26T08:09:15.943Z,98520.63
2022-09-26T08:12:43.541Z,98520.19
2022-09-26T08:15:46.388Z,98516.22
2022-09-26T08:18:42.697Z,98506.19
2022-09-26T08:21:29.933Z,98509.16
2022-09-26T08:24:18.809Z,98504.25
2022-09-26T08:27:24.802Z,98504.66
2022-09-26T08:30:13.876Z,98498.91
2022-09-26T08:33:02.165Z,98507.66
2022-09-26T08:35:51.142Z,98497.75
2022-09-26T08:38:54.073Z,98497.16
2022-09-26T08:42:28.755Z,98504.28
2022-09-26T08:46:14.443Z,98494.50
2022-09-26T08:49:41.866Z,98491.63
2022-09-26T08:52:34.635Z,98488.78
2022-09-26T08:55:25.645Z,98497.94
2022-09-26T08:58:19.724Z,98501.84
2022-09-26T09:01:18.767Z,98501.72
2022-09-26T09:04:39.995Z,98495.75
2022-09-26T09:07:28.103Z,98490.59
2022-09-26T09:10:19.800Z,98487.09
2022-09-26T09:13:29.189Z,98492.38
2022-09-26T09:17:10.504Z,98481.41
2022-09-26T09:20:17.588Z,98478.50
2022-09-26T09:23:45.095Z,98476.34
2022-09-26T09:30:16.986Z,98468.28
2022-09-26T09:33:28.950Z,98471.00
2022-09-26T09:36:49.909Z,98461.22
2022-09-26T09:40:00.045Z,98456.72
2022-09-26T09:43:02.521Z,98455.47
2022-09-26T09:45:52.385Z,98448.44
2022-09-26T09:48:41.050Z,98453.28
2022-09-26T09:51:41.377Z,98441.88
2022-09-26T09:54:45.214Z,98430.50
2022-09-26T09:57:57.683Z,98418.41
2022-09-26T10:01:03.128Z,98412.00
2022-09-26T10:04:03.468Z,98420.94
2022-09-26T10:06:52.844Z,98409.38
2022-09-26T10:09:45.393Z,98407.78
2022-09-26T10:12:58.767Z,98401.38
2022-09-26T10:16:15.785Z,98400.13
2022-09-26T10:19:16.581Z,98399.97
2022-09-26T10:22:04.075Z,98397.53
2022-09-26T10:24:53.463Z,98400.13
2022-09-26T10:27:50.137Z,98380.66
2022-09-26T10:30:50.155Z,98391.25
2022-09-26T10:33:46.447Z,98378.81
2022-09-26T10:36:38.867Z,98369.63
2022-09-26T10:39:46.479Z,98372.38
2022-09-26T10:42:38.411Z,98366.75
2022-09-26T10:45:29.526Z,98365.28
2022-09-26T10:48:49.352Z,98372.31
2022-09-26T10:52:04.591Z,98380.34
2022-09-26T10:54:59.042Z,98379.69
2022-09-26T10:57:50.481Z,98383.38
2022-09-26T11:00:41.970Z,98389.31
2022-09-26T11:03:43.198Z,98374.84
2022-09-26T11:06:47.037Z,98369.06
2022-09-26T11:09:50.001Z,98357.16
2022-09-26T11:13:02.452Z,98364.19
2022-09-26T11:16:01.296Z,98352.16
2022-09-26T11:18:59.157Z,98348.63
2022-09-26T11:21:53.975Z,98332.22
2022-09-26T11:24:54.097Z,98331.94
2022-09-26T11:27:47.991Z,98318.91
2022-09-26T11:30:48.323Z,98320.50
2022-09-26T11:33:45.159Z,98326.47
2022-09-26T11:37:30.613Z,98323.09
2022-09-26T11:40:57.289Z,98303.50
2022-09-26T11:43:58.560Z,98298.19
2022-09-26T11:47:38.524Z,98288.69
2022-09-26T11:50:40.978Z,98288.53
2022-09-26T11:54:06.783Z,98289.34
2022-09-26T11:57:10.814Z,98289.34
2022-09-26T12:00:24.301Z,98279.06
2022-09-26T12:03:56.133Z,98267.94
2022-09-26T12:06:53.574Z,98265.88
2022-09-26T12:10:14.857Z,98261.53
2022-09-26T12:13:20.373Z,98241.78
2022-09-26T12:16:15.493Z,98238.09
2022-09-26T12:19:14.098Z,98223.28
2022-09-26T12:22:30.464Z,98227.50
2022-09-26T12:25:36.055Z,98229.09
2022-09-26T12:28:55.709Z,98221.38
2022-09-26T12:32:00.796Z,98222.97
2022-09-26T12:35:20.044Z,98209.97
2022-09-26T12:38:46.140Z,98216.88
2022-09-26T12:41:57.278Z,98202.25
2022-09-26T12:45:17.319Z,98203.06
2022-09-26T12:48:29.765Z,98205.47
2022-09-26T12:51:28.621Z,98195.34
2022-09-26T12:54:37.107Z,98190.19
2022-09-26T12:57:38.528Z,98181.69
2022-09-26T13:00:27.205Z,98179.09
2022-09-26T13:04:00.383Z,98181.81
2022-09-26T13:07:19.401Z,98181.00
2022-09-26T13:10:28.030Z,98176.81
2022-09-26T13:13:55.890Z,98165.06
2022-09-26T13:17:06.189Z,98170.53
2022-09-26T13:20:00.995Z,98172.31
2022-09-26T13:22:53.970Z,98192.91
2022-09-26T13:25:50.085Z,98187.25
2022-09-26T13:28:55.484Z,98195.13
2022-09-26T13:31:55.964Z,98185.16
2022-09-26T13:34:48.447Z,98183.53
2022-09-26T13:37:47.840Z,98184.34
2022-09-26T13:40:42.832Z,98174.22
2022-09-26T13:43:50.074Z,98176.94
2022-09-26T13:46:54.940Z,98166.81
2022-09-26T13:49:55.312Z,98162.63
2022-09-26T13:52:52.937Z,98161.16
2022-09-26T13:55:42.850Z,98160.38
2022-09-26T13:58:40.898Z,98154.44
2022-09-26T14:01:29.435Z,98145.91
2022-09-26T14:04:21.687Z,98148.47
2022-09-26T14:07:40.745Z,98145.25
2022-09-26T14:10:38.584Z,98134.31
2022-09-26T14:13:37.997Z,98141.22
2022-09-26T14:16:38.030Z,98145.53
2022-09-26T14:19:35.678Z,98142.34
2022-09-26T14:22:37.891Z,98126.09
2022-09-26T14:25:56.477Z,98121.94
2022-09-26T14:28:52.975Z,98116.78
2022-09-26T14:31:41.836Z,98116.13
2022-09-26T14:34:41.896Z,98109.38
2022-09-26T14:37:34.930Z,98110.97
2022-09-26T14:40:32.534Z,98109.38
2022-09-26T14:43:21.280Z,98106.94
2022-09-26T14:46:18.742Z,98087.22
2022-09-26T14:49:08.184Z,98090.41
2022-09-26T14:52:07.502Z,98093.13
2022-09-26T14:55:02.211Z,98092.50
2022-09-26T14:57:49.906Z,98079.66
2022-09-26T15:00:40.472Z,98078.03
2022-09-26T15:03:28.649Z,98064.53
2022-09-26T15:06:15.937Z,98073.06
2022-09-26T15:09:12.428Z,98062.91
2022-09-26T15:12:03.954Z,98064.69
2022-09-26T15:14:55.463Z,98053.44
2022-09-26T15:17:49.887Z,98057.75
2022-09-26T15:20:42.136Z,98049.25
2022-09-26T15:23:32.974Z,98043.94
2022-09-26T15:26:25.802Z,98031.09
2022-09-26T15:29:14.675Z,98024.22
2022-09-26T15:32:02.411Z,98019.84
2022-09-26T15:34:49.988Z,98021.63
2022-09-26T15:37:38.229Z,98019.06
2022-09-26T15:40:28.877Z,98014.72
2022-09-26T15:43:20.697Z,98011.97
2022-09-26T15:46:23.534Z,98004.28
2022-09-26T15:49:15.466Z,98013.75
2022-09-26T15:52:03.386Z,98008.63
2022-09-26T15:54:52.553Z,98007.66
2022-09-26T15:57:39.827Z,98001.53
2022-09-26T16:00:33.932Z,97998.97
2022-09-26T16:03:41.384Z,97991.56
2022-09-26T16:06:34.314Z,97993.03
2022-09-26T16:09:24.852Z,97992.22
2022-09-26T16:12:22.512Z,97990.63
2022-09-26T16:15:18.108Z,97986.44
2022-09-26T16:18:07.024Z,97981.28
2022-09-26T16:21:21.478Z,97982.25
2022-09-26T16:24:30.607Z,97978.06
2022-09-26T16:27:26.098Z,97982.41
2022-09-26T16:30:42.835Z,97980.00
2022-09-26T16:33:33.053Z,97970.69
2022-09-26T16:36:24.646Z,97965.53
2022-09-26T16:39:22.578Z,97969.06
2022-09-26T16:42:17.839Z,97962.16
2022-09-26T16:45:07.537Z,97963.91
2022-09-26T16:47:54.762Z,97962.97
2022-09-26T16:50:42.214Z,97954.47
2022-09-26T16:53:31.089Z,97957.03
2022-09-26T16:56:22.716Z,97950.09
2022-09-26T16:59:18.703Z,97940.78
2022-09-26T17:02:09.702Z,97935.63
2022-09-26T17:04:56.911Z,97935.63
2022-09-26T17:07:44.424Z,97930.66
2022-09-26T17:10:37.604Z,97923.78
2022-09-26T17:13:28.112Z,97916.06
2022-09-26T17:16:16.187Z,97914.28
2022-09-26T17:19:03.817Z,97902.22
2022-09-26T17:21:51.824Z,97895.50
2022-09-26T17:24:39.362Z,97895.50
2022-09-26T17:27:34.155Z,97892.94
2022-09-26T17:30:22.135Z,97888.75
2022-09-26T17:33:11.420Z,97874.94
2022-09-26T17:35:59.490Z,97872.53
2022-09-26T17:38:46.672Z,97873.47
2022-09-26T17:41:34.839Z,97872.34
2022-09-26T17:44:24.209Z,97869.94
2022-09-26T17:47:12.555Z,97864.00
2022-09-26T17:50:00.589Z,97866.56
2022-09-26T17:52:48.182Z,97856.28
2022-09-26T17:55:35.668Z,97857.88
2022-09-26T17:58:22.871Z,97851.13
2022-09-26T18:01:23.383Z,97839.91
2022-09-26T18:04:17.510Z,97847.63
2022-09-26T18:07:10.142Z,97844.38
2022-09-26T18:09:57.860Z,97839.91
2022-09-26T18:12:45.678Z,97842.47
2022-09-26T18:15:32.939Z,97845.03
2022-09-26T18:18:24.211Z,97856.28
2022-09-26T18:21:16.250Z,97836.66
2022-09-26T18:24:06.891Z,97833.31
2022-09-26T18:26:57.195Z,97835.09
2022-09-26T18:29:47.875Z,97828.34
2022-09-26T18:32:39.090Z,97828.34
2022-09-26T18:35:30.026Z,97827.53
2022-09-26T18:38:17.406Z,97819.84
2022-09-26T18:41:07.046Z,97824.16
2022-09-26T18:43:58.065Z,97818.22
2022-09-26T18:46:47.131Z,97816.59
2022-09-26T18:49:36.910Z,97820.97
2022-09-26T18:52:25.931Z,97816.78
2022-09-26T18:55:38.104Z,97814.38
2022-09-26T18:58:27.268Z,97809.41
2022-09-26T19:01:21.487Z,97810.53
2022-09-26T19:04:14.885Z,97818.38
2022-09-26T19:07:06.722Z,97830.56
2022-09-26T19:09:55.673Z,97832.50
2022-09-26T19:12:43.463Z,97842.13
2022-09-26T19:15:31.174Z,97843.06
2022-09-26T19:18:18.558Z,97848.22
2022-09-26T19:21:11.657Z,97849.19
2022-09-26T19:24:03.087Z,97850.94
2022-09-26T19:26:56.666Z,97846.94
2022-09-26T19:29:48.030Z,97852.06
2022-09-26T19:32:38.806Z,97853.03
2022-09-26T19:35:29.445Z,97847.88
2022-09-26T19:38:22.139Z,97848.88
2022-09-26T19:41:09.625Z,97852.41
2022-09-26T19:43:58.510Z,97851.44
2022-09-26T19:46:48.435Z,97859.94
2022-09-26T19:49:35.961Z,97845.66
2022-09-26T19:52:23.509Z,97851.59
2022-09-26T19:55:15.771Z,97849.16
2022-09-26T19:58:11.796Z,97849.16
2022-09-26T20:01:05.870Z,97843.41
2022-09-26T20:03:53.423Z,97847.88
2022-09-26T20:06:40.847Z,97841.94
2022-09-26T20:09:29.619Z,97836.19
2022-09-26T20:12:17.119Z,97836.31
2022-09-26T20:15:04.355Z,97830.38
2022-09-26T20:17:55.173Z,97826.38
2022-09-26T20:20:43.187Z,97825.75
2022-09-26T20:23:31.376Z,97815.47
2022-09-26T20:26:19.735Z,97816.44
2022-09-26T20:29:13.004Z,97809.66
2022-09-26T20:32:00.945Z,97809.03
2022-09-26T20:34:49.548Z,97800.69
2022-09-26T20:37:39.960Z,97803.41
2022-09-26T20:40:27.465Z,97795.72
2022-09-26T20:43:22.436Z,97787.34
2022-09-26T20:46:11.919Z,97783.03
2022-09-26T20:49:00.850Z,97787.50
2022-09-26T20:51:51.214Z,97777.56
2022-09-26T20:54:38.260Z,97779.97
2022-09-26T20:57:26.249Z,97775.00
2022-09-26T21:00:16.790Z,97770.81
2022-09-26T21:03:04.287Z,97758.31
2022-09-26T21:05:51.591Z,97763.59
2022-09-26T21:08:40.285Z,97746.41
2022-09-26T21:11:28.037Z,97747.53
2022-09-26T21:14:15.355Z,97737.44
2022-09-26T21:17:02.582Z,97727.31
2022-09-26T21:19:51.430Z,97722.19
2022-09-26T21:23:11.591Z,97714.00
2022-09-26T21:26:00.389Z,97715.94
2022-09-26T21:28:48.720Z,97706.47
2022-09-26T21:31:36.729Z,97703.09
2022-09-26T21:34:26.389Z,97695.41
2022-09-26T21:37:13.845Z,97697.31
2022-09-26T21:40:01.496Z,97698.28
2022-09-26T21:42:54.360Z,97694.09
2022-09-26T21:45:43.707Z,97682.22
2022-09-26T21:48:31.021Z,97676.31
2022-09-26T21:51:18.775Z,97672.13
2022-09-26T21:54:12.236Z,97667.00
2022-09-26T21:57:06.092Z,97667.94
2022-09-26T21:59:56.088Z,97658.63
2022-09-26T22:02:43.697Z,97658.50
2022-09-26T22:05:31.410Z,97653.38
2022-09-26T22:08:18.675Z,97647.56
2022-09-26T22:11:07.563Z,97645.00
2022-09-26T22:13:56.436Z,97641.66
2022-09-26T22:16:45.538Z,97638.25
2022-09-26T22:19:33.586Z,97636.53
2022-09-26T22:22:21.679Z,97639.88
2022-09-26T22:25:09.935Z,97629.59
2022-09-26T22:27:57.499Z,97622.06
2022-09-26T22:30:44.740Z,97613.59
2022-09-26T22:33:33.528Z,97614.38
2022-09-26T22:36:21.053Z,97624.63
2022-09-26T22:39:08.571Z,97623.84
2022-09-26T22:41:55.942Z,97600.88
2022-09-26T22:44:43.578Z,97600.09
2022-09-26T22:47:30.931Z,97608.59
2022-09-26T22:50:19.849Z,97600.09
2022-09-26T22:53:06.909Z,97597.53
2022-09-26T22:55:55.896Z,97586.47
2022-09-26T22:58:46.250Z,97575.56
2022-09-26T23:01:33.780Z,97576.50
2022-09-26T23:04:21.225Z,97577.16
2022-09-26T23:07:10.132Z,97569.78
2022-09-26T23:09:57.455Z,97566.41
2022-09-26T23:12:45.067Z,97557.91
2022-09-26T23:15:32.692Z,97558.88
2022-09-26T23:18:20.444Z,97550.38
2022-09-26T23:21:09.924Z,97546.22
2022-09-26T23:24:00.638Z,97542.84
2022-09-26T23:26:48.503Z,97543.63
2022-09-26T23:29:36.740Z,97535.16
2022-09-26T23:32:24.094Z,97528.56
2022-09-26T23:35:11.772Z,97538.84
2022-09-26T23:37:59.387Z,97527.75
2022-09-26T23:40:48.844Z,97523.44
2022-09-26T23:43:36.815Z,97513.19
2022-09-26T23:46:24.151Z,97521.03
2022-09-26T23:49:11.281Z,97512.53
2022-09-26T23:51:58.768Z,97514.31
2022-09-26T23:54:46.421Z,97509.97
2022-09-26T23:57:36.393Z,97506.44
